Terminal Aerodrome Forecast
Issued by NWS Corpus Christi, TX

Home | Current Version | Previous Version | Text Only | Print | Product List | Glossary On
Versions: 1 2 3 4 5 6 7 8 9 10 11 12 13 14 15 16 17
000
FTUS44 KCRP 271815 AAA
TAFVCT
TAF AMD
KVCT 271815Z 2718/2818 17012KT P6SM BKN025
      TEMPO 2718/2719 SCT025 BKN050
     FM271900 16010KT P6SM SCT035 BKN050
      TEMPO 2800/2802 BKN012
     FM280200 15010KT P6SM BKN012
     FM280600 16008KT 4SM BR BKN007
      TEMPO 2809/2813 2SM BR BKN003
     FM281300 16010KT 5SM BR BKN009
     FM281600 16012G22KT P6SM OVC012=

USA.gov is the U.S. government's official web portal to all federal, state and local government web resources and services.